Main page
METAR-TAF:

METAR-TAF

Airports :

Bologna, Italy

Bologna Guglielmo Marconi Airport

latitude: 44-32N, longitude: 011-18E, elevation: 36 m

Current weather observation

The report was made 33 minutes ago, at 08:20 UTC
Wind 5 kt from the Northwest, varying between West and North
Temperature 25°C
Humidity 50%
Pressure 1010 hPa
Visibility 10 km or more
no clouds below 1500 m and no cumulonimbus

METAR: LIPE 270820Z 31005KT 260V360 CAVOK 25/14 Q1010

Time: 10:53 (08:53 UTC)

Forecast

The report was made 3 hours and 53 minutes ago, at 05:00 UTC
Forecast valid from 27 at 06 UTC to 28 at 06 UTC
Wind 5 kt from variable directions
Visibility 10 km or more
no clouds below 1500 m and no cumulonimbus

TAF: LIPE 270500Z 2706/2806 VRB05KT CAVOK

Weather observations and forecasts of more than 4000 airports (METAR and TAF reports).

The available stations are represented by yellow and red dots on the map.

Hover mouse over dot to see the name of the station.

Then click to see weather observations and forecasts.

To change the map : click on the green buttons with a black cross to zoom in, on the green button with a dash to zoom out, or on the green arrows for adjacent maps.


METAR-TAF: